CYRT

Details ICAO CYRT (YRT)
Name RANKIN INLET
Region Canada
Timezone America/Rankin_Inlet (UTC-5.0)
Plans Departing 28
Arriving 46
Stats Elevation 94 ft / 29 m (AMSL)
Location 62.811388° -92.115836°
Runways 1
Magnetic Variation 6.800° W
Sunrise 2018-05-24 08:44:04 UTC / 2018-05-24 03:44:04 Local
Sunset 2018-05-25 03:29:27 UTC / 2018-05-24 22:29:27 Local
Advertisement - Login to hide

Runways

ID Width Length Bearing (true) Bearing (mag) Surface Threshold Offset Overrun Length
13T 150 ft / 46 m 5,982 ft / 1,823 m 129.03° 135.83° Asphalt 0 ft / 0 m 0 ft / 0 m
31T 150 ft / 46 m 5,982 ft / 1,823 m 309.05° 315.85° Asphalt 0 ft / 0 m 0 ft / 0 m

Map

Weather


0- 5 10 15 20 25 30 35+ Temperature / ° C

Clouds and Precipitation
Forecast for 2018-05-25 00:00 UTC. Updated 5 hours ago

Ground ~20,000 ft ~40,000 ft Winds

METAR

CYRT 250400Z 36006KT 15SM FEW015 M05/M07 A3010 RMK SC1 SLP198

TAF

TAF CYRT 242338Z 2500/2512 01012KT P6SM SCT015 TEMPO 2500/2512 5SM -SN BR BKN015 RMK NXT FCST BY 250600Z

Frequencies

Tower 122.20 MHz MF RDO
Warning: Do not use this data for real-world aviation or navigation. No guarantee of current accuracy is given.